^^
Datos históricos de la estación: Murcia-Puente Tocinos
Diario Informe para Mayo 07, 2021 Unidades:  Métrico    Ingés   Ambas
Diario Semanal Mensual Anual
  Máxima: Mínima: Promedio:
Temperatura: 23.7 °C 16.6 °C 18 °C
Punto de rocio: 15.3 °C 11.1 °C 13.7 °C
Humedad: 87% 45.1% 77%
Velocidad viento: 10km/h 2.2km/h 5.2km/h
Racha viento: 19.3km/h - -
Viento- - SSO
Presión: 1016.5 hPa 1014.9 hPa -
Precipitación: 0.0 mm    
 
 
Tabla de datos para Mayo 07, 2021
Hora Temperatura Punto de rocio Presión Viento Velocidad viento Racha viento Humedad Intensidad lluvia(por hora) Nubes
00:04 17.9 °C 14.9 °C 1015.8 hPa North 6.9 km/h 11.3 km/h 83% 0.0 mm
00:09 17.9 °C 14.9 °C 1015.8 hPa NNO 5.6 km/h 11.1 km/h 83% 0.0 mm
00:14 17.9 °C 14.9 °C 1015.8 hPa NNE 4.6 km/h 11.3 km/h 83% 0.0 mm
00:19 17.8 °C 15 °C 1015.8 hPa North 5.3 km/h 11.9 km/h 83.3% 0.0 mm
00:24 17.8 °C 15.1 °C 1015.8 hPa NNE 5.8 km/h 11.3 km/h 84% 0.0 mm
00:29 17.8 °C 15.1 °C 1016.0 hPa NNO 5.3 km/h 10.3 km/h 84% 0.0 mm
00:34 17.7 °C 15 °C 1016.0 hPa NNO 5 km/h 11.1 km/h 84% 0.0 mm
00:39 17.7 °C 15 °C 1016.0 hPa NNO 5 km/h 11.3 km/h 84.4% 0.0 mm
00:44 17.7 °C 15.2 °C 1016.0 hPa NO 5 km/h 9.7 km/h 85% 0.0 mm
00:49 17.7 °C 15.2 °C 1016.0 hPa ONO 4.8 km/h 9.7 km/h 85% 0.0 mm
00:54 17.7 °C 15.2 °C 1016.0 hPa ONO 4.7 km/h 8 km/h 85% 0.0 mm
00:59 17.7 °C 15.1 °C 1016.0 hPa ONO 4.2 km/h 8 km/h 85% 0.0 mm
01:04 17.6 °C 15.1 °C 1015.9 hPa ONO 3.9 km/h 8 km/h 85% 0.0 mm
01:09 17.6 °C 15.2 °C 1015.9 hPa ONO 4.5 km/h 8.4 km/h 85.9% 0.0 mm
01:14 17.5 °C 15.1 °C 1016.0 hPa ONO 5 km/h 8 km/h 86% 0.0 mm
01:19 17.4 °C 15.1 °C 1016.0 hPa NO 4.8 km/h 7.4 km/h 86% 0.0 mm
01:24 17.4 °C 15.1 °C 1016.0 hPa NO 4.7 km/h 8 km/h 86.1% 0.0 mm
01:29 17.4 °C 15.2 °C 1016.1 hPa NO 3.9 km/h 6.4 km/h 86.9% 0.0 mm
01:34 17.4 °C 15.2 °C 1016.1 hPa Oeste 3.2 km/h 7.4 km/h 87% 0.0 mm
01:39 17.4 °C 15.2 °C 1016.1 hPa Oeste 3.2 km/h 8 km/h 87% 0.0 mm
01:44 17.4 °C 15.2 °C 1016.1 hPa Oeste 3.2 km/h 4.8 km/h 87% 0.0 mm
01:49 17.4 °C 15.3 °C 1016.0 hPa Oeste 2.6 km/h 3.9 km/h 87% 0.0 mm
01:54 17.5 °C 15.3 °C 1016.0 hPa Oeste 2.2 km/h 3.9 km/h 87% 0.0 mm
01:59 17.5 °C 15.3 °C 1016.0 hPa ONO 2.7 km/h 5.8 km/h 87% 0.0 mm
02:04 17.5 °C 15.3 °C 1015.9 hPa ONO 2.9 km/h 6.4 km/h 87% 0.0 mm
02:09 17.5 °C 15.3 °C 1015.9 hPa ONO 2.5 km/h 6.4 km/h 87% 0.0 mm
02:14 17.5 °C 15.2 °C 1015.9 hPa ONO 2.2 km/h 3.9 km/h 86.4% 0.0 mm
02:19 17.5 °C 15.1 °C 1015.9 hPa ONO 2.6 km/h 4.7 km/h 86% 0.0 mm
02:24 17.6 °C 15.2 °C 1015.9 hPa ONO 2.9 km/h 4.8 km/h 86% 0.0 mm
02:29 17.6 °C 15.2 °C 1015.9 hPa SSE 2.9 km/h 5.8 km/h 86% 0.0 mm
02:34 17.7 °C 15.2 °C 1015.7 hPa SE 2.9 km/h 6.4 km/h 85.8% 0.0 mm
02:39 17.7 °C 15.2 °C 1015.7 hPa SE 3.1 km/h 7.6 km/h 85% 0.0 mm
02:44 17.7 °C 15.2 °C 1015.7 hPa Sur 3.2 km/h 8 km/h 85% 0.0 mm
02:49 17.7 °C 15.1 °C 1015.6 hPa Sur 3.6 km/h 8 km/h 84.6% 0.0 mm
02:54 17.7 °C 14.9 °C 1015.6 hPa Sur 3.9 km/h 7.4 km/h 84% 0.0 mm
02:59 17.7 °C 14.9 °C 1015.6 hPa SSE 3.5 km/h 8 km/h 84% 0.0 mm
03:04 17.7 °C 14.8 °C 1015.4 hPa SSO 3.2 km/h 7.4 km/h 83.4% 0.0 mm
03:09 17.7 °C 14.7 °C 1015.4 hPa Sur 3.6 km/h 9.3 km/h 82.7% 0.0 mm
03:14 17.6 °C 14.4 °C 1015.4 hPa Sur 3.9 km/h 9.3 km/h 81.7% 0.0 mm
05:09 16.7 °C 13.4 °C 1015.1 hPa SSO 7.3 km/h 11.9 km/h 81% 0.0 mm
05:14 16.7 °C 13.5 °C 1015.1 hPa SO 7.6 km/h 10 km/h 81% 0.0 mm
05:19 16.8 °C 13.4 °C 1015.0 hPa SO 7 km/h 11.9 km/h 80.7% 0.0 mm
05:24 16.9 °C 13.4 °C 1015.0 hPa SO 6.5 km/h 11.3 km/h 80% 0.0 mm
05:29 16.9 °C 13.3 °C 1015.0 hPa SO 6.7 km/h 10 km/h 79.4% 0.0 mm
05:34 17 °C 13.4 °C 1015.0 hPa SO 6.9 km/h 10 km/h 79% 0.0 mm
05:39 17.1 °C 13.4 °C 1015.0 hPa OSO 6.3 km/h 9.7 km/h 78.6% 0.0 mm
05:44 17 °C 13.1 °C 1015.0 hPa OSO 5.8 km/h 10 km/h 78% 0.0 mm
05:49 16.9 °C 13.1 °C 1015.0 hPa SO 5.8 km/h 9.7 km/h 78.4% 0.0 mm
05:54 16.8 °C 13.1 °C 1015.0 hPa SO 5.8 km/h 12.2 km/h 79% 0.0 mm
05:59 16.7 °C 13.1 °C 1015.0 hPa SO 6.2 km/h 13 km/h 79% 0.0 mm
06:04 16.7 °C 13 °C 1014.9 hPa SO 6.5 km/h 12.9 km/h 79% 0.0 mm
06:09 16.6 °C 12.9 °C 1014.9 hPa SO 5.5 km/h 8 km/h 79% 0.0 mm
06:14 16.6 °C 12.9 °C 1014.9 hPa SO 4.6 km/h 8 km/h 79% 0.0 mm
06:19 16.7 °C 13 °C 1014.9 hPa OSO 3.7 km/h 8 km/h 79% 0.0 mm
06:24 16.7 °C 13 °C 1014.9 hPa OSO 2.9 km/h 8 km/h 79% 0.0 mm
06:29 16.6 °C 13 °C 1015.0 hPa SSO 4 km/h 8 km/h 79% 0.0 mm
06:34 16.6 °C 12.9 °C 1015.0 hPa OSO 4.7 km/h 8 km/h 79% 0.0 mm
06:39 16.6 °C 12.9 °C 1015.0 hPa SO 4.6 km/h 8 km/h 79% 0.0 mm
06:44 16.6 °C 12.9 °C 1015.2 hPa SO 4.7 km/h 8 km/h 79% 0.0 mm
06:49 16.6 °C 13.1 °C 1015.2 hPa SO 4.2 km/h 8 km/h 79.7% 0.0 mm
06:54 16.6 °C 13.1 °C 1015.2 hPa SSO 3.9 km/h 8 km/h 80% 0.0 mm
06:59 16.6 °C 13.1 °C 1015.2 hPa Sur 3.9 km/h 8 km/h 79.8% 0.0 mm
07:04 16.6 °C 12.9 °C 1015.1 hPa SSE 3.9 km/h 8 km/h 79% 0.0 mm
07:09 16.6 °C 12.9 °C 1015.1 hPa SSE 3.5 km/h 6.9 km/h 79% 0.0 mm
07:14 16.6 °C 12.9 °C 1015.3 hPa Sur 3.2 km/h 8 km/h 79% 0.0 mm
07:19 16.6 °C 13.1 °C 1015.3 hPa Sur 3.6 km/h 8 km/h 79.6% 0.0 mm
07:24 16.6 °C 13.1 °C 1015.3 hPa SO 3.9 km/h 8 km/h 79.7% 0.0 mm
07:29 16.7 °C 13 °C 1015.4 hPa SSO 3.9 km/h 8 km/h 79% 0.0 mm
07:34 16.7 °C 13.1 °C 1015.4 hPa Sur 3.9 km/h 8 km/h 79% 0.0 mm
07:39 16.7 °C 13.1 °C 1015.4 hPa SSE 4.5 km/h 8 km/h 79% 0.0 mm
07:44 16.7 °C 12.9 °C 1015.6 hPa SSE 5 km/h 8 km/h 78.4% 0.0 mm
07:49 16.7 °C 12.9 °C 1015.6 hPa Sur 4.3 km/h 7.6 km/h 78% 0.0 mm
07:54 16.8 °C 12.9 °C 1015.6 hPa SSE 3.9 km/h 8 km/h 78% 0.0 mm
07:59 16.8 °C 12.9 °C 1015.6 hPa SSE 4.6 km/h 8.4 km/h 78% 0.0 mm
08:04 16.8 °C 12.8 °C 1015.6 hPa SSE 5 km/h 10.3 km/h 77.5% 0.0 mm
08:09 16.8 °C 12.8 °C 1015.6 hPa SSE 5.9 km/h 11.3 km/h 77% 0.0 mm
08:14 16.9 °C 12.9 °C 1015.6 hPa SE 6.5 km/h 11.3 km/h 77% 0.0 mm
08:19 17.1 °C 12.9 °C 1015.6 hPa SSE 6.7 km/h 9.7 km/h 76.2% 0.0 mm
08:24 17.2 °C 12.8 °C 1015.6 hPa SSE 6.9 km/h 10 km/h 75.3% 0.0 mm
08:29 17.4 °C 12.9 °C 1015.8 hPa SSE 6.9 km/h 11.9 km/h 74.7% 0.0 mm
08:34 17.6 °C 12.9 °C 1015.8 hPa SSE 6.9 km/h 11.3 km/h 74% 0.0 mm
08:39 17.8 °C 12.9 °C 1015.8 hPa SSE 6.9 km/h 11.3 km/h 73.1% 0.0 mm
08:44 18.1 °C 12.9 °C 1015.9 hPa Sur 6.9 km/h 9.7 km/h 71.6% 0.0 mm
08:49 18.3 °C 12.9 °C 1015.9 hPa Sur 5.9 km/h 9.7 km/h 70.6% 0.0 mm
08:54 18.6 °C 13 °C 1015.9 hPa Sur 5 km/h 9.7 km/h 70% 0.0 mm
08:59 18.9 °C 13 °C 1016.0 hPa SSE 5.8 km/h 10 km/h 68.6% 0.0 mm
09:04 19.2 °C 13.1 °C 1016.0 hPa SE 6.5 km/h 9.7 km/h 67.8% 0.0 mm
09:09 19.5 °C 13.1 °C 1016.0 hPa Sur 6.1 km/h 11.1 km/h 66.5% 0.0 mm
09:14 19.8 °C 13 °C 1016.1 hPa Sur 5.8 km/h 11.3 km/h 65.1% 0.0 mm
09:19 20.1 °C 13.1 °C 1016.1 hPa Sur 6.5 km/h 9.7 km/h 64.1% 0.0 mm
09:24 20.3 °C 13 °C 1016.1 hPa Sur 6.9 km/h 10 km/h 63.1% 0.0 mm
09:29 20.5 °C 13 °C 1016.2 hPa Sur 6.9 km/h 11.1 km/h 62.2% 0.0 mm
09:34 20.6 °C 13.1 °C 1016.2 hPa Sur 6.9 km/h 11.1 km/h 62% 0.0 mm
09:39 20.8 °C 12.9 °C 1016.2 hPa Sur 7.3 km/h 11.3 km/h 60.4% 0.0 mm
09:44 21.1 °C 13 °C 1016.3 hPa Sur 7.6 km/h 11.1 km/h 59.7% 0.0 mm
09:49 21.3 °C 12.8 °C 1016.3 hPa Sur 7.6 km/h 14.8 km/h 58.4% 0.0 mm
09:54 21.6 °C 12.9 °C 1016.3 hPa Sur 7.6 km/h 14.8 km/h 57.6% 0.0 mm
09:59 21.7 °C 12.8 °C 1016.5 hPa Sur 8.7 km/h 14.8 km/h 56.9% 0.0 mm
10:04 22 °C 12.8 °C 1016.5 hPa Sur 9.5 km/h 14.5 km/h 56.1% 0.0 mm
10:09 22.3 °C 12.7 °C 1016.5 hPa Sur 9 km/h 14.8 km/h 54.6% 0.0 mm
10:14 22.5 °C 12.6 °C 1016.5 hPa SSO 8.7 km/h 14.8 km/h 53.4% 0.0 mm
10:19 22.7 °C 12.5 °C 1016.5 hPa Sur 9.5 km/h 14.8 km/h 52.7% 0.0 mm
10:24 23 °C 12.5 °C 1016.5 hPa SSO 10 km/h 14.5 km/h 51.7% 0.0 mm
10:29 23.4 °C 11.8 °C 1016.5 hPa SSO 9.3 km/h 18 km/h 48.1% 0.0 mm
10:30 23.7 °C 11.1 °C 1016.5 hPa SO 8.8 km/h 19.3 km/h 45.1% 0.0 mm
Murcia-Puente Tocinos, España
Compliments of Weather Underground - 1.75 mb

La estación de MeteoMurcia.com, publica sus datos en los siguientes proyectos:

Weather Underground PWS IMURCIAP2 Meteoclimatic www.awekas.at

W3Counter
Web Analytics